sensor_id;sensor_type;location;lat;lon;timestamp;temperature;humidity
23703;DHT22;12030;50.376;8.762;2023-06-10T00:02:20;16.10;99.90
23703;DHT22;12030;50.376;8.762;2023-06-10T00:04:46;16.00;99.90
23703;DHT22;12030;50.376;8.762;2023-06-10T00:07:12;15.90;99.90
23703;DHT22;12030;50.376;8.762;2023-06-10T00:09:39;15.80;99.90
23703;DHT22;12030;50.376;8.762;2023-06-10T00:12:06;15.70;99.90
23703;DHT22;12030;50.376;8.762;2023-06-10T00:14:36;15.70;99.90
23703;DHT22;12030;50.376;8.762;2023-06-10T00:17:02;15.60;99.90
23703;DHT22;12030;50.376;8.762;2023-06-10T00:19:27;15.60;99.90
23703;DHT22;12030;50.376;8.762;2023-06-10T00:21:56;15.50;99.90
23703;DHT22;12030;50.376;8.762;2023-06-10T00:24:21;15.40;99.90
23703;DHT22;12030;50.376;8.762;2023-06-10T00:26:47;15.40;99.90
23703;DHT22;12030;50.376;8.762;2023-06-10T00:29:13;15.40;99.90
23703;DHT22;12030;50.376;8.762;2023-06-10T00:31:40;15.40;99.90
23703;DHT22;12030;50.376;8.762;2023-06-10T00:34:06;15.30;99.90
23703;DHT22;12030;50.376;8.762;2023-06-10T00:36:32;15.20;99.90
23703;DHT22;12030;50.376;8.762;2023-06-10T00:38:58;15.10;99.90
23703;DHT22;12030;50.376;8.762;2023-06-10T00:41:24;15.00;99.90
23703;DHT22;12030;50.376;8.762;2023-06-10T00:43:51;15.00;99.90
23703;DHT22;12030;50.376;8.762;2023-06-10T00:46:17;17.90;99.90
23703;DHT22;12030;50.376;8.762;2023-06-10T00:48:44;14.90;99.90
23703;DHT22;12030;50.376;8.762;2023-06-10T00:51:10;14.90;99.90
23703;DHT22;12030;50.376;8.762;2023-06-10T00:53:39;14.90;99.90
23703;DHT22;12030;50.376;8.762;2023-06-10T00:56:05;14.80;99.90
23703;DHT22;12030;50.376;8.762;2023-06-10T00:58:31;15.80;99.90
23703;DHT22;12030;50.376;8.762;2023-06-10T01:00:57;14.80;99.90
23703;DHT22;12030;50.376;8.762;2023-06-10T01:03:23;14.80;99.90
23703;DHT22;12030;50.376;8.762;2023-06-10T01:05:57;14.70;99.90
23703;DHT22;12030;50.376;8.762;2023-06-10T01:09:23;14.70;99.90
23703;DHT22;12030;50.376;8.762;2023-06-10T01:11:35;14.70;99.90
23703;DHT22;12030;50.376;8.762;2023-06-10T01:14:03;14.70;99.90
23703;DHT22;12030;50.376;8.762;2023-06-10T01:16:30;14.70;99.90
23703;DHT22;12030;50.376;8.762;2023-06-10T01:18:56;14.70;99.90
23703;DHT22;12030;50.376;8.762;2023-06-10T01:21:22;14.80;99.90
23703;DHT22;12030;50.376;8.762;2023-06-10T01:23:53;14.70;99.90
23703;DHT22;12030;50.376;8.762;2023-06-10T01:26:28;14.70;99.90
23703;DHT22;12030;50.376;8.762;2023-06-10T01:29:07;14.70;99.90
23703;DHT22;12030;50.376;8.762;2023-06-10T01:34:03;14.60;99.90
23703;DHT22;12030;50.376;8.762;2023-06-10T01:36:32;14.60;99.90
23703;DHT22;12030;50.376;8.762;2023-06-10T01:38:59;14.60;99.90
23703;DHT22;12030;50.376;8.762;2023-06-10T01:41:26;14.50;99.90
23703;DHT22;12030;50.376;8.762;2023-06-10T01:43:52;14.50;99.90
23703;DHT22;12030;50.376;8.762;2023-06-10T01:46:19;14.50;99.90
23703;DHT22;12030;50.376;8.762;2023-06-10T01:48:46;14.70;99.90
23703;DHT22;12030;50.376;8.762;2023-06-10T01:51:12;14.50;99.90
23703;DHT22;12030;50.376;8.762;2023-06-10T01:53:37;14.50;99.90
23703;DHT22;12030;50.376;8.762;2023-06-10T01:56:03;14.40;99.90
23703;DHT22;12030;50.376;8.762;2023-06-10T01:58:28;14.50;99.90
23703;DHT22;12030;50.376;8.762;2023-06-10T02:00:54;14.40;99.90
23703;DHT22;12030;50.376;8.762;2023-06-10T02:03:20;14.50;99.90
23703;DHT22;12030;50.376;8.762;2023-06-10T02:05:45;14.50;99.90
23703;DHT22;12030;50.376;8.762;2023-06-10T02:08:11;14.70;99.90
23703;DHT22;12030;50.376;8.762;2023-06-10T02:10:36;14.80;99.90
23703;DHT22;12030;50.376;8.762;2023-06-10T02:13:02;14.90;99.90
23703;DHT22;12030;50.376;8.762;2023-06-10T02:15:27;14.90;99.90
23703;DHT22;12030;50.376;8.762;2023-06-10T02:17:53;14.80;99.90
23703;DHT22;12030;50.376;8.762;2023-06-10T02:20:20;14.70;99.90
23703;DHT22;12030;50.376;8.762;2023-06-10T02:22:46;14.70;99.90
23703;DHT22;12030;50.376;8.762;2023-06-10T02:25:11;14.80;99.90
23703;DHT22;12030;50.376;8.762;2023-06-10T02:27:37;14.90;99.90
23703;DHT22;12030;50.376;8.762;2023-06-10T02:30:02;15.10;99.90
23703;DHT22;12030;50.376;8.762;2023-06-10T02:32:28;15.10;99.90
23703;DHT22;12030;50.376;8.762;2023-06-10T02:34:54;15.00;99.90
23703;DHT22;12030;50.376;8.762;2023-06-10T02:37:19;15.00;99.90
23703;DHT22;12030;50.376;8.762;2023-06-10T02:39:45;14.90;99.90
23703;DHT22;12030;50.376;8.762;2023-06-10T02:42:11;14.90;99.90
23703;DHT22;12030;50.376;8.762;2023-06-10T02:44:37;15.00;99.90
23703;DHT22;12030;50.376;8.762;2023-06-10T02:47:03;14.90;99.90
23703;DHT22;12030;50.376;8.762;2023-06-10T02:49:29;14.90;99.90
23703;DHT22;12030;50.376;8.762;2023-06-10T02:51:55;14.90;99.90
23703;DHT22;12030;50.376;8.762;2023-06-10T02:54:24;15.00;99.90
23703;DHT22;12030;50.376;8.762;2023-06-10T02:56:51;14.90;99.90
23703;DHT22;12030;50.376;8.762;2023-06-10T02:59:17;14.80;99.90
23703;DHT22;12030;50.376;8.762;2023-06-10T03:01:43;14.80;99.90
23703;DHT22;12030;50.376;8.762;2023-06-10T03:04:08;14.80;99.90
23703;DHT22;12030;50.376;8.762;2023-06-10T03:06:34;14.80;99.90
23703;DHT22;12030;50.376;8.762;2023-06-10T03:09:00;14.70;99.90
23703;DHT22;12030;50.376;8.762;2023-06-10T03:11:26;14.70;99.90
23703;DHT22;12030;50.376;8.762;2023-06-10T03:13:52;14.60;99.90
23703;DHT22;12030;50.376;8.762;2023-06-10T03:16:19;14.50;99.90
23703;DHT22;12030;50.376;8.762;2023-06-10T03:18:44;14.50;99.90
23703;DHT22;12030;50.376;8.762;2023-06-10T03:21:10;14.60;99.90
23703;DHT22;12030;50.376;8.762;2023-06-10T03:23:36;14.60;99.90
23703;DHT22;12030;50.376;8.762;2023-06-10T03:26:02;14.70;99.90
23703;DHT22;12030;50.376;8.762;2023-06-10T03:28:27;14.70;99.90
23703;DHT22;12030;50.376;8.762;2023-06-10T03:30:53;14.80;99.90
23703;DHT22;12030;50.376;8.762;2023-06-10T03:33:19;14.90;99.90
23703;DHT22;12030;50.376;8.762;2023-06-10T03:35:45;14.90;99.90
23703;DHT22;12030;50.376;8.762;2023-06-10T03:38:10;14.90;99.90
23703;DHT22;12030;50.376;8.762;2023-06-10T03:40:36;14.80;99.90
23703;DHT22;12030;50.376;8.762;2023-06-10T03:43:01;14.90;99.90
23703;DHT22;12030;50.376;8.762;2023-06-10T03:45:27;14.90;99.90
23703;DHT22;12030;50.376;8.762;2023-06-10T03:47:53;15.00;99.90
23703;DHT22;12030;50.376;8.762;2023-06-10T03:50:19;15.00;99.90
23703;DHT22;12030;50.376;8.762;2023-06-10T03:52:45;15.00;99.90
23703;DHT22;12030;50.376;8.762;2023-06-10T03:55:12;15.00;99.90
23703;DHT22;12030;50.376;8.762;2023-06-10T03:57:39;15.00;99.90
23703;DHT22;12030;50.376;8.762;2023-06-10T04:00:05;15.10;99.90
23703;DHT22;12030;50.376;8.762;2023-06-10T04:02:38;15.10;99.90
23703;DHT22;12030;50.376;8.762;2023-06-10T04:05:11;15.20;99.90
23703;DHT22;12030;50.376;8.762;2023-06-10T04:07:37;15.20;99.90
23703;DHT22;12030;50.376;8.762;2023-06-10T04:10:05;15.30;99.90
23703;DHT22;12030;50.376;8.762;2023-06-10T04:12:31;15.30;99.90
23703;DHT22;12030;50.376;8.762;2023-06-10T04:14:56;15.40;99.90
23703;DHT22;12030;50.376;8.762;2023-06-10T04:17:22;15.40;99.90
23703;DHT22;12030;50.376;8.762;2023-06-10T04:19:48;15.80;99.90
23703;DHT22;12030;50.376;8.762;2023-06-10T04:22:13;15.40;99.90
23703;DHT22;12030;50.376;8.762;2023-06-10T04:24:39;15.50;99.90
23703;DHT22;12030;50.376;8.762;2023-06-10T04:27:05;15.50;99.90
23703;DHT22;12030;50.376;8.762;2023-06-10T04:29:30;15.50;99.90
23703;DHT22;12030;50.376;8.762;2023-06-10T04:31:56;15.60;99.90
23703;DHT22;12030;50.376;8.762;2023-06-10T04:34:21;15.70;99.90
23703;DHT22;12030;50.376;8.762;2023-06-10T04:36:47;15.70;99.90
23703;DHT22;12030;50.376;8.762;2023-06-10T04:39:13;15.80;99.90
23703;DHT22;12030;50.376;8.762;2023-06-10T04:41:38;15.80;99.90
23703;DHT22;12030;50.376;8.762;2023-06-10T04:44:04;15.80;99.90
23703;DHT22;12030;50.376;8.762;2023-06-10T04:46:29;15.90;99.90
23703;DHT22;12030;50.376;8.762;2023-06-10T04:48:57;15.90;99.90
23703;DHT22;12030;50.376;8.762;2023-06-10T04:51:22;16.00;99.90
23703;DHT22;12030;50.376;8.762;2023-06-10T04:53:48;16.10;99.90
23703;DHT22;12030;50.376;8.762;2023-06-10T04:56:13;16.10;99.90
23703;DHT22;12030;50.376;8.762;2023-06-10T04:58:40;16.20;99.90
23703;DHT22;12030;50.376;8.762;2023-06-10T05:01:06;16.30;99.90
23703;DHT22;12030;50.376;8.762;2023-06-10T05:03:31;16.30;99.90
23703;DHT22;12030;50.376;8.762;2023-06-10T05:05:57;16.40;99.90
23703;DHT22;12030;50.376;8.762;2023-06-10T05:08:22;16.50;99.90
23703;DHT22;12030;50.376;8.762;2023-06-10T05:10:48;16.50;99.90
23703;DHT22;12030;50.376;8.762;2023-06-10T05:13:13;16.60;99.90
23703;DHT22;12030;50.376;8.762;2023-06-10T05:15:39;16.70;99.90
23703;DHT22;12030;50.376;8.762;2023-06-10T05:18:05;16.80;99.90
23703;DHT22;12030;50.376;8.762;2023-06-10T05:20:31;16.80;99.90
23703;DHT22;12030;50.376;8.762;2023-06-10T05:22:56;16.90;99.90
23703;DHT22;12030;50.376;8.762;2023-06-10T05:25:22;17.00;99.90
23703;DHT22;12030;50.376;8.762;2023-06-10T05:27:47;17.10;99.90
23703;DHT22;12030;50.376;8.762;2023-06-10T05:30:13;17.20;99.90
23703;DHT22;12030;50.376;8.762;2023-06-10T05:32:39;17.20;99.90
23703;DHT22;12030;50.376;8.762;2023-06-10T05:35:04;17.40;99.90
23703;DHT22;12030;50.376;8.762;2023-06-10T05:37:33;17.40;99.90
23703;DHT22;12030;50.376;8.762;2023-06-10T05:39:58;17.50;99.90
23703;DHT22;12030;50.376;8.762;2023-06-10T05:42:24;17.70;99.90
23703;DHT22;12030;50.376;8.762;2023-06-10T05:44:49;18.40;99.90
23703;DHT22;12030;50.376;8.762;2023-06-10T05:47:15;17.80;99.90
23703;DHT22;12030;50.376;8.762;2023-06-10T05:49:40;17.90;99.90
23703;DHT22;12030;50.376;8.762;2023-06-10T05:52:06;18.10;99.90
23703;DHT22;12030;50.376;8.762;2023-06-10T05:54:31;18.20;99.90
23703;DHT22;12030;50.376;8.762;2023-06-10T05:56:57;18.30;99.90
23703;DHT22;12030;50.376;8.762;2023-06-10T05:59:23;18.40;99.90
23703;DHT22;12030;50.376;8.762;2023-06-10T06:01:49;18.50;99.90
23703;DHT22;12030;50.376;8.762;2023-06-10T06:04:15;18.70;99.90
23703;DHT22;12030;50.376;8.762;2023-06-10T06:06:41;18.80;99.90
23703;DHT22;12030;50.376;8.762;2023-06-10T06:09:07;18.80;99.90
23703;DHT22;12030;50.376;8.762;2023-06-10T06:11:34;19.00;99.90
23703;DHT22;12030;50.376;8.762;2023-06-10T06:13:59;19.10;99.90
23703;DHT22;12030;50.376;8.762;2023-06-10T06:16:25;19.20;99.90
23703;DHT22;12030;50.376;8.762;2023-06-10T06:18:50;19.20;99.90
23703;DHT22;12030;50.376;8.762;2023-06-10T06:21:16;19.40;99.90
23703;DHT22;12030;50.376;8.762;2023-06-10T06:23:41;19.50;99.90
23703;DHT22;12030;50.376;8.762;2023-06-10T06:26:07;19.60;99.90
23703;DHT22;12030;50.376;8.762;2023-06-10T06:28:32;19.70;99.90
23703;DHT22;12030;50.376;8.762;2023-06-10T06:30:58;19.80;99.90
23703;DHT22;12030;50.376;8.762;2023-06-10T06:33:23;20.00;99.90
23703;DHT22;12030;50.376;8.762;2023-06-10T06:35:49;20.00;99.90
23703;DHT22;12030;50.376;8.762;2023-06-10T06:38:14;20.20;99.90
23703;DHT22;12030;50.376;8.762;2023-06-10T06:40:40;19.60;99.90
23703;DHT22;12030;50.376;8.762;2023-06-10T06:43:05;20.40;99.90
23703;DHT22;12030;50.376;8.762;2023-06-10T06:45:31;20.50;99.90
23703;DHT22;12030;50.376;8.762;2023-06-10T06:47:59;20.50;99.90
23703;DHT22;12030;50.376;8.762;2023-06-10T06:50:24;21.50;99.90
23703;DHT22;12030;50.376;8.762;2023-06-10T06:52:50;20.70;99.90
23703;DHT22;12030;50.376;8.762;2023-06-10T06:55:15;20.80;99.90
23703;DHT22;12030;50.376;8.762;2023-06-10T06:57:41;20.90;99.90
23703;DHT22;12030;50.376;8.762;2023-06-10T07:00:07;21.00;99.90
23703;DHT22;12030;50.376;8.762;2023-06-10T07:02:34;21.10;99.90
23703;DHT22;12030;50.376;8.762;2023-06-10T07:05:00;21.10;99.90
23703;DHT22;12030;50.376;8.762;2023-06-10T07:07:26;21.20;99.90
23703;DHT22;12030;50.376;8.762;2023-06-10T07:09:52;21.30;99.90
23703;DHT22;12030;50.376;8.762;2023-06-10T07:12:17;21.50;99.90
23703;DHT22;12030;50.376;8.762;2023-06-10T07:14:44;21.60;99.90
23703;DHT22;12030;50.376;8.762;2023-06-10T07:17:09;21.60;99.90
23703;DHT22;12030;50.376;8.762;2023-06-10T07:19:35;21.70;99.90
23703;DHT22;12030;50.376;8.762;2023-06-10T07:22:00;21.80;99.90
23703;DHT22;12030;50.376;8.762;2023-06-10T07:24:26;21.90;99.90
23703;DHT22;12030;50.376;8.762;2023-06-10T07:26:51;22.00;99.90
23703;DHT22;12030;50.376;8.762;2023-06-10T07:29:17;22.10;99.90
23703;DHT22;12030;50.376;8.762;2023-06-10T07:31:42;22.20;99.90
23703;DHT22;12030;50.376;8.762;2023-06-10T07:34:08;22.30;99.90
23703;DHT22;12030;50.376;8.762;2023-06-10T07:36:33;22.50;99.90
23703;DHT22;12030;50.376;8.762;2023-06-10T07:38:59;22.60;99.90
23703;DHT22;12030;50.376;8.762;2023-06-10T07:41:25;22.60;99.90
23703;DHT22;12030;50.376;8.762;2023-06-10T07:43:54;22.70;99.90
23703;DHT22;12030;50.376;8.762;2023-06-10T07:46:23;22.70;99.90
23703;DHT22;12030;50.376;8.762;2023-06-10T07:48:49;22.90;99.90
23703;DHT22;12030;50.376;8.762;2023-06-10T07:51:18;25.40;99.90
23703;DHT22;12030;50.376;8.762;2023-06-10T07:53:44;23.00;99.90
23703;DHT22;12030;50.376;8.762;2023-06-10T07:56:09;23.10;99.90
23703;DHT22;12030;50.376;8.762;2023-06-10T07:58:34;23.30;99.90
23703;DHT22;12030;50.376;8.762;2023-06-10T08:01:00;23.40;99.90
23703;DHT22;12030;50.376;8.762;2023-06-10T08:03:25;23.40;99.90
23703;DHT22;12030;50.376;8.762;2023-06-10T08:05:51;23.50;99.70
23703;DHT22;12030;50.376;8.762;2023-06-10T08:08:16;23.60;99.90
23703;DHT22;12030;50.376;8.762;2023-06-10T08:10:42;23.60;99.90
23703;DHT22;12030;50.376;8.762;2023-06-10T08:13:08;23.70;98.90
23703;DHT22;12030;50.376;8.762;2023-06-10T08:15:34;23.70;99.40
23703;DHT22;12030;50.376;8.762;2023-06-10T08:17:59;23.80;99.10
23703;DHT22;12030;50.376;8.762;2023-06-10T08:20:25;23.90;99.90
23703;DHT22;12030;50.376;8.762;2023-06-10T08:22:51;24.10;99.30
23703;DHT22;12030;50.376;8.762;2023-06-10T08:25:16;25.50;99.50
23703;DHT22;12030;50.376;8.762;2023-06-10T08:27:42;24.10;99.20
23703;DHT22;12030;50.376;8.762;2023-06-10T08:30:08;24.30;99.30
23703;DHT22;12030;50.376;8.762;2023-06-10T08:32:35;24.30;97.60
23703;DHT22;12030;50.376;8.762;2023-06-10T08:35:00;24.40;98.10
23703;DHT22;12030;50.376;8.762;2023-06-10T08:37:26;24.60;98.80
23703;DHT22;12030;50.376;8.762;2023-06-10T08:39:51;24.80;97.80
23703;DHT22;12030;50.376;8.762;2023-06-10T08:45:02;24.90;98.30
23703;DHT22;12030;50.376;8.762;2023-06-10T08:47:30;26.40;98.70
23703;DHT22;12030;50.376;8.762;2023-06-10T08:50:03;25.10;97.00
23703;DHT22;12030;50.376;8.762;2023-06-10T08:52:34;25.10;96.70
23703;DHT22;12030;50.376;8.762;2023-06-10T08:55:03;25.10;96.50
23703;DHT22;12030;50.376;8.762;2023-06-10T08:57:30;25.20;96.60
23703;DHT22;12030;50.376;8.762;2023-06-10T08:59:57;25.40;97.10
23703;DHT22;12030;50.376;8.762;2023-06-10T09:02:24;25.40;96.80
23703;DHT22;12030;50.376;8.762;2023-06-10T09:04:50;25.60;97.20
23703;DHT22;12030;50.376;8.762;2023-06-10T09:07:16;25.70;96.20
23703;DHT22;12030;50.376;8.762;2023-06-10T09:09:42;25.80;96.40
23703;DHT22;12030;50.376;8.762;2023-06-10T09:12:09;25.80;96.20
23703;DHT22;12030;50.376;8.762;2023-06-10T09:14:35;25.90;96.90
23703;DHT22;12030;50.376;8.762;2023-06-10T09:17:01;25.90;95.70
23703;DHT22;12030;50.376;8.762;2023-06-10T09:19:27;26.10;96.20
23703;DHT22;12030;50.376;8.762;2023-06-10T09:21:53;26.20;96.20
23703;DHT22;12030;50.376;8.762;2023-06-10T09:24:20;26.20;95.10
23703;DHT22;12030;50.376;8.762;2023-06-10T09:26:46;26.50;94.70
23703;DHT22;12030;50.376;8.762;2023-06-10T09:29:11;26.60;93.90
23703;DHT22;12030;50.376;8.762;2023-06-10T09:31:39;26.70;93.20
23703;DHT22;12030;50.376;8.762;2023-06-10T09:34:09;26.90;93.40
23703;DHT22;12030;50.376;8.762;2023-06-10T09:36:36;27.00;96.70
23703;DHT22;12030;50.376;8.762;2023-06-10T09:39:02;27.20;96.20
23703;DHT22;12030;50.376;8.762;2023-06-10T09:41:35;27.40;93.00
23703;DHT22;12030;50.376;8.762;2023-06-10T09:44:19;27.40;92.40
23703;DHT22;12030;50.376;8.762;2023-06-10T09:46:46;27.60;94.40
23703;DHT22;12030;50.376;8.762;2023-06-10T09:49:12;27.60;91.90
23703;DHT22;12030;50.376;8.762;2023-06-10T09:51:37;27.70;92.40
23703;DHT22;12030;50.376;8.762;2023-06-10T09:54:04;27.80;92.70
23703;DHT22;12030;50.376;8.762;2023-06-10T09:56:33;28.00;92.00
23703;DHT22;12030;50.376;8.762;2023-06-10T09:58:59;27.80;91.20
23703;DHT22;12030;50.376;8.762;2023-06-10T10:01:25;28.00;92.50
23703;DHT22;12030;50.376;8.762;2023-06-10T10:03:51;28.00;93.90
23703;DHT22;12030;50.376;8.762;2023-06-10T10:06:18;28.10;91.70
23703;DHT22;12030;50.376;8.762;2023-06-10T10:08:49;28.30;92.70
23703;DHT22;12030;50.376;8.762;2023-06-10T10:11:18;28.30;92.20
23703;DHT22;12030;50.376;8.762;2023-06-10T10:13:45;28.40;90.70
23703;DHT22;12030;50.376;8.762;2023-06-10T10:16:16;28.60;89.20
23703;DHT22;12030;50.376;8.762;2023-06-10T10:18:46;28.60;86.20
23703;DHT22;12030;50.376;8.762;2023-06-10T10:21:13;29.00;81.40
23703;DHT22;12030;50.376;8.762;2023-06-10T10:26:16;29.00;77.80
23703;DHT22;12030;50.376;8.762;2023-06-10T10:29:09;29.00;81.80
23703;DHT22;12030;50.376;8.762;2023-06-10T10:31:32;29.10;77.90
23703;DHT22;12030;50.376;8.762;2023-06-10T10:34:01;29.40;79.00
23703;DHT22;12030;50.376;8.762;2023-06-10T10:36:28;29.20;73.90
23703;DHT22;12030;50.376;8.762;2023-06-10T10:38:54;29.20;72.20
23703;DHT22;12030;50.376;8.762;2023-06-10T10:41:20;29.30;68.00
23703;DHT22;12030;50.376;8.762;2023-06-10T10:43:46;29.50;69.30
23703;DHT22;12030;50.376;8.762;2023-06-10T10:46:14;29.50;69.30
23703;DHT22;12030;50.376;8.762;2023-06-10T10:48:40;29.70;76.00
23703;DHT22;12030;50.376;8.762;2023-06-10T10:51:10;29.60;71.70
23703;DHT22;12030;50.376;8.762;2023-06-10T10:53:39;29.70;71.70
23703;DHT22;12030;50.376;8.762;2023-06-10T10:56:13;29.90;71.50
23703;DHT22;12030;50.376;8.762;2023-06-10T10:58:39;29.80;70.60
23703;DHT22;12030;50.376;8.762;2023-06-10T11:01:11;29.80;69.00
23703;DHT22;12030;50.376;8.762;2023-06-10T11:03:45;29.90;67.70
23703;DHT22;12030;50.376;8.762;2023-06-10T11:06:13;30.00;66.60
23703;DHT22;12030;50.376;8.762;2023-06-10T11:11:24;30.00;66.40
23703;DHT22;12030;50.376;8.762;2023-06-10T11:16:43;30.20;65.50
23703;DHT22;12030;50.376;8.762;2023-06-10T11:19:09;30.30;65.70
23703;DHT22;12030;50.376;8.762;2023-06-10T11:22:00;30.30;67.90
23703;DHT22;12030;50.376;8.762;2023-06-10T11:24:26;30.40;61.50
23703;DHT22;12030;50.376;8.762;2023-06-10T11:26:52;30.40;64.10
23703;DHT22;12030;50.376;8.762;2023-06-10T11:29:17;30.50;64.70
23703;DHT22;12030;50.376;8.762;2023-06-10T11:31:45;30.50;62.50
23703;DHT22;12030;50.376;8.762;2023-06-10T11:34:11;30.60;63.70
23703;DHT22;12030;50.376;8.762;2023-06-10T11:36:39;30.50;63.30
23703;DHT22;12030;50.376;8.762;2023-06-10T11:39:06;30.50;63.50
23703;DHT22;12030;50.376;8.762;2023-06-10T11:41:33;33.20;68.50
23703;DHT22;12030;50.376;8.762;2023-06-10T11:44:03;30.50;63.30
23703;DHT22;12030;50.376;8.762;2023-06-10T11:46:29;30.60;64.30
23703;DHT22;12030;50.376;8.762;2023-06-10T11:48:59;30.60;64.50
23703;DHT22;12030;50.376;8.762;2023-06-10T11:51:29;30.50;63.70
23703;DHT22;12030;50.376;8.762;2023-06-10T11:53:55;30.40;64.60
23703;DHT22;12030;50.376;8.762;2023-06-10T11:56:25;30.20;62.60
23703;DHT22;12030;50.376;8.762;2023-06-10T11:58:59;30.30;65.30
23703;DHT22;12030;50.376;8.762;2023-06-10T12:01:30;30.40;68.40
23703;DHT22;12030;50.376;8.762;2023-06-10T12:04:07;30.60;63.90
23703;DHT22;12030;50.376;8.762;2023-06-10T12:06:40;30.50;64.40
23703;DHT22;12030;50.376;8.762;2023-06-10T12:09:13;30.40;64.60
23703;DHT22;12030;50.376;8.762;2023-06-10T12:11:38;30.60;68.40
23703;DHT22;12030;50.376;8.762;2023-06-10T12:14:05;30.90;65.50
23703;DHT22;12030;50.376;8.762;2023-06-10T12:16:31;30.90;66.10
23703;DHT22;12030;50.376;8.762;2023-06-10T12:19:02;30.90;63.70
23703;DHT22;12030;50.376;8.762;2023-06-10T12:21:28;31.20;66.20
23703;DHT22;12030;50.376;8.762;2023-06-10T12:24:07;30.90;66.80
23703;DHT22;12030;50.376;8.762;2023-06-10T12:26:35;31.00;64.10
23703;DHT22;12030;50.376;8.762;2023-06-10T12:29:02;31.30;66.10
23703;DHT22;12030;50.376;8.762;2023-06-10T12:32:01;31.30;65.60
23703;DHT22;12030;50.376;8.762;2023-06-10T12:34:38;31.40;65.00
23703;DHT22;12030;50.376;8.762;2023-06-10T12:37:06;31.10;65.80
23703;DHT22;12030;50.376;8.762;2023-06-10T12:39:38;31.00;65.40
23703;DHT22;12030;50.376;8.762;2023-06-10T12:42:04;30.80;66.00
23703;DHT22;12030;50.376;8.762;2023-06-10T12:44:40;31.10;65.00
23703;DHT22;12030;50.376;8.762;2023-06-10T12:47:11;31.20;65.60
23703;DHT22;12030;50.376;8.762;2023-06-10T12:49:40;31.30;64.90
23703;DHT22;12030;50.376;8.762;2023-06-10T12:52:06;31.50;66.20
23703;DHT22;12030;50.376;8.762;2023-06-10T12:54:31;31.50;65.70
23703;DHT22;12030;50.376;8.762;2023-06-10T12:56:57;31.50;66.20
23703;DHT22;12030;50.376;8.762;2023-06-10T12:59:23;31.20;66.60
23703;DHT22;12030;50.376;8.762;2023-06-10T13:01:55;31.60;67.00
23703;DHT22;12030;50.376;8.762;2023-06-10T13:04:21;31.80;65.50
23703;DHT22;12030;50.376;8.762;2023-06-10T13:06:47;32.00;65.80
23703;DHT22;12030;50.376;8.762;2023-06-10T13:09:14;31.80;65.70
23703;DHT22;12030;50.376;8.762;2023-06-10T13:11:40;31.90;68.80
23703;DHT22;12030;50.376;8.762;2023-06-10T13:14:07;32.30;65.10
23703;DHT22;12030;50.376;8.762;2023-06-10T13:16:32;32.10;63.80
23703;DHT22;12030;50.376;8.762;2023-06-10T13:18:58;32.60;66.60
23703;DHT22;12030;50.376;8.762;2023-06-10T13:21:24;32.40;62.90
23703;DHT22;12030;50.376;8.762;2023-06-10T13:23:50;31.90;64.20
23703;DHT22;12030;50.376;8.762;2023-06-10T13:26:16;31.40;65.40
23703;DHT22;12030;50.376;8.762;2023-06-10T13:28:45;30.90;66.30
23703;DHT22;12030;50.376;8.762;2023-06-10T13:31:11;30.70;67.20
23703;DHT22;12030;50.376;8.762;2023-06-10T13:33:37;31.20;68.80
23703;DHT22;12030;50.376;8.762;2023-06-10T13:36:03;31.40;65.00
23703;DHT22;12030;50.376;8.762;2023-06-10T13:38:28;31.90;66.90
23703;DHT22;12030;50.376;8.762;2023-06-10T13:40:54;32.20;65.40
23703;DHT22;12030;50.376;8.762;2023-06-10T13:43:19;32.60;63.30
23703;DHT22;12030;50.376;8.762;2023-06-10T13:45:45;33.10;65.50
23703;DHT22;12030;50.376;8.762;2023-06-10T13:48:11;33.40;68.30
23703;DHT22;12030;50.376;8.762;2023-06-10T13:50:37;33.70;66.30
23703;DHT22;12030;50.376;8.762;2023-06-10T13:53:03;33.70;61.00
23703;DHT22;12030;50.376;8.762;2023-06-10T13:55:29;32.80;61.50
23703;DHT22;12030;50.376;8.762;2023-06-10T13:57:54;32.60;62.10
23703;DHT22;12030;50.376;8.762;2023-06-10T14:00:20;31.90;60.90
23703;DHT22;12030;50.376;8.762;2023-06-10T14:02:45;31.90;61.10
23703;DHT22;12030;50.376;8.762;2023-06-10T14:05:12;32.30;62.90
23703;DHT22;12030;50.376;8.762;2023-06-10T14:07:37;32.10;60.50
23703;DHT22;12030;50.376;8.762;2023-06-10T14:10:03;31.80;61.90
23703;DHT22;12030;50.376;8.762;2023-06-10T14:12:29;32.40;63.30
23703;DHT22;12030;50.376;8.762;2023-06-10T14:14:55;32.00;60.40
23703;DHT22;12030;50.376;8.762;2023-06-10T14:17:20;31.60;62.20
23703;DHT22;12030;50.376;8.762;2023-06-10T14:19:46;31.80;64.40
23703;DHT22;12030;50.376;8.762;2023-06-10T14:22:11;32.20;63.20
23703;DHT22;12030;50.376;8.762;2023-06-10T14:24:37;32.10;61.80
23703;DHT22;12030;50.376;8.762;2023-06-10T14:27:03;32.30;62.90
23703;DHT22;12030;50.376;8.762;2023-06-10T14:29:29;32.80;60.80
23703;DHT22;12030;50.376;8.762;2023-06-10T14:31:56;32.80;60.20
23703;DHT22;12030;50.376;8.762;2023-06-10T14:34:22;32.80;59.50
23703;DHT22;12030;50.376;8.762;2023-06-10T14:36:49;33.00;59.10
23703;DHT22;12030;50.376;8.762;2023-06-10T14:39:14;33.00;57.90
23703;DHT22;12030;50.376;8.762;2023-06-10T14:41:40;33.50;58.40
23703;DHT22;12030;50.376;8.762;2023-06-10T14:44:05;33.30;58.30
23703;DHT22;12030;50.376;8.762;2023-06-10T14:46:31;33.70;59.30
23703;DHT22;12030;50.376;8.762;2023-06-10T14:48:56;33.90;60.40
23703;DHT22;12030;50.376;8.762;2023-06-10T14:51:24;33.80;59.00
23703;DHT22;12030;50.376;8.762;2023-06-10T14:53:50;33.30;57.70
23703;DHT22;12030;50.376;8.762;2023-06-10T14:56:16;33.40;57.90
23703;DHT22;12030;50.376;8.762;2023-06-10T14:58:41;33.80;58.70
23703;DHT22;12030;50.376;8.762;2023-06-10T15:01:07;34.10;59.00
23703;DHT22;12030;50.376;8.762;2023-06-10T15:03:32;34.30;58.00
23703;DHT22;12030;50.376;8.762;2023-06-10T15:05:58;34.60;59.00
23703;DHT22;12030;50.376;8.762;2023-06-10T15:08:23;34.60;57.40
23703;DHT22;12030;50.376;8.762;2023-06-10T15:10:49;34.40;57.30
23703;DHT22;12030;50.376;8.762;2023-06-10T15:13:14;33.80;58.30
23703;DHT22;12030;50.376;8.762;2023-06-10T15:15:40;32.80;59.30
23703;DHT22;12030;50.376;8.762;2023-06-10T15:18:05;32.30;60.90
23703;DHT22;12030;50.376;8.762;2023-06-10T15:20:31;32.40;59.90
23703;DHT22;12030;50.376;8.762;2023-06-10T15:22:56;32.20;60.10
23703;DHT22;12030;50.376;8.762;2023-06-10T15:25:22;32.50;60.80
23703;DHT22;12030;50.376;8.762;2023-06-10T15:27:47;32.80;60.20
23703;DHT22;12030;50.376;8.762;2023-06-10T15:30:13;33.00;61.20
23703;DHT22;12030;50.376;8.762;2023-06-10T15:32:39;33.30;60.70
23703;DHT22;12030;50.376;8.762;2023-06-10T15:35:04;33.50;60.00
23703;DHT22;12030;50.376;8.762;2023-06-10T15:37:30;33.60;59.30
23703;DHT22;12030;50.376;8.762;2023-06-10T15:39:56;33.60;60.40
23703;DHT22;12030;50.376;8.762;2023-06-10T15:42:21;33.70;61.60